Terminal Aerodrome Forecast
Issued by NWS

Home | Current Version | Previous Version | Text Only | Print | Product List | Glossary On
Versions: 1 2 3 4 5 6 7 8 9 10 11 12 13 14 15 16
000
FTUS44 KCRP 022329
TAFLRD
TAF
KLRD 022329Z 0300/0324 10013KT P6SM FEW060
     FM030400 12004KT P6SM SKC
      TEMPO 0311/0313 SCT015
     FM031500 14008KT P6SM SCT050=

USA.gov is the U.S. government's official web portal to all federal, state and local government web resources and services.